Time;durP1;ratioP1;P1;durP2;ratioP2;P2;SDS_P1;SDS_P2;PMS_P1;PMS_P2;Temp;Humidity;BMP_temperature;BMP_pressure;BME280_temperature;BME280_humidity;BME280_pressure;Samples;Min_cycle;Max_cycle;Signal;HPM_P1;HPM_P2
2021/01/26 00:00:57;;;;;;;85.43;10.38;;;-1.90;99.90;;;;;;5082066;28;20062;-49
2021/01/26 00:03:24;;;;;;;32.17;8.52;;;-1.90;99.90;;;;;;5086116;28;20090;-50
2021/01/26 00:05:51;;;;;;;12.82;6.85;;;-1.90;99.90;;;;;;5086183;28;20044;-50
2021/01/26 00:08:19;;;;;;;6.63;4.05;;;-1.80;99.90;;;;;;5084761;28;20047;-50
2021/01/26 00:10:46;;;;;;;4.43;2.92;;;-1.80;99.90;;;;;;5083895;28;20044;-49
2021/01/26 00:13:13;;;;;;;7.63;4.50;;;-1.80;99.90;;;;;;5075861;28;20055;-49
2021/01/26 00:15:40;;;;;;;8.85;3.67;;;-1.70;99.90;;;;;;5088117;28;20044;-50
2021/01/26 00:18:08;;;;;;;15.95;8.07;;;-1.60;99.90;;;;;;5081575;28;20050;-49
2021/01/26 00:20:35;;;;;;;11.77;7.28;;;-1.60;99.90;;;;;;5076996;28;20440;-49
2021/01/26 00:23:02;;;;;;;13.38;6.85;;;-1.60;99.90;;;;;;5084548;28;20048;-50
2021/01/26 00:25:35;;;;;;;8.80;5.20;;;-1.60;99.90;;;;;;5085647;28;20059;-49
2021/01/26 00:28:04;;;;;;;12.65;6.80;;;-1.80;99.90;;;;;;5077425;28;20048;-49
2021/01/26 00:30:33;;;;;;;7.97;4.60;;;-1.70;99.90;;;;;;5076738;28;20036;-49
2021/01/26 00:33:02;;;;;;;13.50;7.85;;;-1.70;99.90;;;;;;5083619;28;20404;-51
2021/01/26 00:35:30;;;;;;;13.13;7.22;;;-1.70;99.90;;;;;;5081458;28;20071;-49
2021/01/26 00:37:59;;;;;;;13.52;7.38;;;-1.80;99.90;;;;;;5085835;28;20048;-49
2021/01/26 00:40:27;;;;;;;18.88;8.85;;;-1.80;99.90;;;;;;5081040;28;20044;-49
2021/01/26 00:42:54;;;;;;;12.98;6.05;;;-1.80;99.90;;;;;;5072390;28;20391;-49
2021/01/26 00:45:22;;;;;;;12.50;6.10;;;-1.80;99.90;;;;;;5075843;28;20413;-49
2021/01/26 00:47:49;;;;;;;10.90;6.88;;;-1.80;99.90;;;;;;5078293;28;20477;-49
2021/01/26 00:50:17;;;;;;;10.73;6.30;;;-1.80;99.90;;;;;;5077851;28;20094;-51
2021/01/26 00:52:44;;;;;;;4.95;2.55;;;-1.80;99.90;;;;;;5085285;28;20075;-50
2021/01/26 00:55:12;;;;;;;36.58;9.52;;;-1.80;99.90;;;;;;5086960;28;20051;-50
2021/01/26 00:57:39;;;;;;;157.65;20.00;;;-1.80;99.90;;;;;;5083914;28;20048;-49
2021/01/26 01:00:14;;;;;;;451.42;27.52;;;-1.90;99.90;;;;;;5077442;28;20048;-49
2021/01/26 01:02:41;;;;;;;45.38;14.63;;;-2.00;99.90;;;;;;5085590;28;20404;-49
2021/01/26 01:05:08;;;;;;;44.47;12.20;;;-2.00;99.90;;;;;;5084107;28;20044;-49
2021/01/26 01:07:35;;;;;;;15.32;9.68;;;-2.00;99.90;;;;;;5072545;28;20057;-50
2021/01/26 01:10:04;;;;;;;21.05;11.77;;;-2.00;99.90;;;;;;5081242;28;20472;-49
2021/01/26 01:12:31;;;;;;;250.88;20.27;;;-2.00;99.90;;;;;;5085905;28;20048;-51
2021/01/26 01:14:57;;;;;;;23.67;11.70;;;-2.00;99.90;;;;;;5078317;28;20048;-49
2021/01/26 01:17:24;;;;;;;35.50;12.35;;;-2.10;99.90;;;;;;5075540;28;20052;-49
2021/01/26 01:19:51;;;;;;;39.67;9.63;;;-2.20;99.90;;;;;;5086740;28;20062;-49
2021/01/26 01:22:18;;;;;;;37.38;9.25;;;-2.20;99.90;;;;;;5080899;28;20048;-50
2021/01/26 01:24:44;;;;;;;23.95;10.15;;;-2.30;99.90;;;;;;5080022;28;20130;-50
2021/01/26 01:27:11;;;;;;;21.65;9.45;;;-2.20;99.90;;;;;;5079188;28;20073;-49
2021/01/26 01:29:37;;;;;;;24.23;9.07;;;-2.30;99.90;;;;;;5070849;28;20059;-50
2021/01/26 01:32:04;;;;;;;16.13;8.35;;;-2.30;99.90;;;;;;5088906;28;20417;-49
2021/01/26 01:34:31;;;;;;;13.18;5.32;;;-2.20;99.90;;;;;;5076507;28;20040;-49
2021/01/26 01:36:57;;;;;;;21.17;9.63;;;-2.20;99.90;;;;;;5088305;28;20048;-49
2021/01/26 01:39:24;;;;;;;14.68;6.82;;;-2.40;99.90;;;;;;5086592;28;20415;-49
2021/01/26 01:41:50;;;;;;;10.73;5.78;;;-2.30;99.90;;;;;;5073677;28;20060;-53
2021/01/26 01:44:17;;;;;;;20.67;9.40;;;-2.40;99.90;;;;;;5085806;28;20072;-49
2021/01/26 01:46:51;;;;;;;23.50;9.80;;;-2.50;99.90;;;;;;5086606;28;20519;-49
2021/01/26 01:49:23;;;;;;;23.05;10.05;;;-2.60;99.90;;;;;;5090803;28;20048;-48
2021/01/26 01:51:49;;;;;;;88.70;10.88;;;-2.60;99.90;;;;;;5086255;28;20551;-49
2021/01/26 01:54:22;;;;;;;20.67;9.10;;;-2.70;99.90;;;;;;5091507;28;20083;-49
2021/01/26 01:56:54;;;;;;;11.23;8.10;;;-2.70;99.90;;;;;;5084788;28;20047;-49
2021/01/26 01:59:26;;;;;;;16.63;8.38;;;-2.70;99.90;;;;;;5086766;28;20048;-50
2021/01/26 02:01:53;;;;;;;11.95;7.20;;;-2.60;99.90;;;;;;5088072;28;20052;-49
2021/01/26 02:04:24;;;;;;;8.45;3.65;;;-2.60;99.90;;;;;;5085438;28;20047;-48
2021/01/26 02:06:54;;;;;;;7.53;2.85;;;-2.50;99.90;;;;;;5088357;28;20492;-50
2021/01/26 02:09:26;;;;;;;2.50;1.85;;;-2.40;99.90;;;;;;5084943;28;20052;-49
2021/01/26 02:11:53;;;;;;;5.07;2.45;;;-2.40;99.90;;;;;;5087420;28;20045;-49
2021/01/26 02:14:20;;;;;;;3.72;2.08;;;-2.40;99.90;;;;;;5085990;28;20044;-49
2021/01/26 02:17:13;;;;;;;4.63;3.60;;;-2.40;99.90;;;;;;5089300;28;20051;-49
2021/01/26 02:20:21;;;;;;;7.65;3.63;;;-2.40;99.90;;;;;;5090600;28;20044;-49
2021/01/26 02:23:12;;;;;;;6.85;3.15;;;-2.50;99.90;;;;;;5086822;28;20047;-49
2021/01/26 02:25:54;;;;;;;8.27;5.68;;;-2.50;99.90;;;;;;5083887;28;20060;-49
2021/01/26 02:28:45;;;;;;;7.95;5.57;;;-2.50;99.90;;;;;;5079272;28;20040;-49
2021/01/26 02:31:42;;;;;;;14.38;5.47;;;-2.60;99.90;;;;;;5081446;28;20055;-49
2021/01/26 02:35:02;;;;;;;9.57;4.50;;;-2.60;99.90;;;;;;5074520;28;20088;-49
2021/01/26 02:37:53;;;;;;;7.35;3.63;;;-2.60;99.90;;;;;;4992371;28;20070;-49
2021/01/26 02:40:38;;;;;;;8.93;5.22;;;-2.60;99.90;;;;;;5085373;28;20397;-49
2021/01/26 02:43:19;;;;;;;4.22;3.58;;;-2.60;99.90;;;;;;5086172;28;20051;-49
2021/01/26 02:45:59;;;;;;;5.30;3.63;;;-2.60;99.90;;;;;;5089641;28;20063;-49
2021/01/26 02:49:00;;;;;;;7.47;4.13;;;-2.70;99.90;;;;;;5086216;28;20040;-50
2021/01/26 02:51:29;;;;;;;8.18;3.90;;;-2.60;99.90;;;;;;5075645;28;20044;-50
2021/01/26 02:53:56;;;;;;;5.85;2.63;;;-2.60;99.90;;;;;;5081198;28;20439;-49
2021/01/26 02:56:30;;;;;;;8.90;3.00;;;-2.60;99.90;;;;;;5077271;28;20108;-49
2021/01/26 02:59:04;;;;;;;9.75;4.13;;;-2.60;99.90;;;;;;5092091;28;20044;-49
2021/01/26 03:01:37;;;;;;;6.35;3.35;;;-2.60;99.90;;;;;;5085228;28;20401;-50
2021/01/26 03:04:08;;;;;;;7.35;2.80;;;-2.60;99.90;;;;;;5078484;28;20044;-49
2021/01/26 03:06:37;;;;;;;5.15;3.28;;;-2.70;99.90;;;;;;5081042;28;20051;-49
2021/01/26 03:09:09;;;;;;;5.88;3.35;;;-2.70;99.90;;;;;;5079115;28;20262;-49
2021/01/26 03:11:48;;;;;;;7.80;2.45;;;-2.60;99.90;;;;;;5075073;28;20048;-50
2021/01/26 03:14:38;;;;;;;4.40;2.85;;;-2.60;99.90;;;;;;5081767;28;20425;-49
2021/01/26 03:17:20;;;;;;;8.80;3.63;;;-2.60;99.90;;;;;;5076303;28;20044;-50
2021/01/26 03:19:50;;;;;;;5.32;2.65;;;-2.50;99.90;;;;;;5090585;28;20476;-50
2021/01/26 03:22:21;;;;;;;5.93;2.35;;;-2.50;99.90;;;;;;5080177;28;20052;-51
2021/01/26 03:24:52;;;;;;;7.10;4.43;;;-2.50;99.90;;;;;;5091042;28;20044;-49
2021/01/26 03:27:23;;;;;;;9.65;4.40;;;-2.70;99.90;;;;;;5083392;28;20044;-49
2021/01/26 03:29:55;;;;;;;12.60;6.13;;;-2.80;99.90;;;;;;5072508;28;20055;-49
2021/01/26 03:32:33;;;;;;;7.30;4.88;;;-2.80;99.90;;;;;;5081455;28;20503;-49
2021/01/26 03:35:01;;;;;;;29.30;7.80;;;-2.80;99.90;;;;;;5076300;28;20106;-49
2021/01/26 03:37:27;;;;;;;21.35;10.02;;;-2.90;99.90;;;;;;5090865;28;20052;-49
2021/01/26 03:39:54;;;;;;;12.60;7.18;;;-3.00;99.90;;;;;;5082131;28;20052;-49
2021/01/26 03:42:24;;;;;;;14.10;5.95;;;-2.90;99.90;;;;;;5085258;28;20126;-51
2021/01/26 03:44:51;;;;;;;10.23;4.95;;;-3.00;99.90;;;;;;5086092;28;20044;-49
2021/01/26 03:47:31;;;;;;;10.65;5.60;;;-2.90;99.90;;;;;;5085044;28;20067;-49
2021/01/26 03:50:05;;;;;;;8.82;4.60;;;-2.90;99.90;;;;;;5085127;28;20114;-50
2021/01/26 03:53:20;;;;;;;10.18;4.85;;;-3.00;99.90;;;;;;5081451;28;20051;-51
2021/01/26 03:55:56;;;;;;;5.68;4.03;;;-3.00;99.90;;;;;;5074577;28;20047;-50
2021/01/26 03:58:31;;;;;;;4.47;1.90;;;-3.10;99.90;;;;;;5089016;28;20044;-49
2021/01/26 04:01:12;;;;;;;4.22;1.75;;;-2.90;99.90;;;;;;5082916;28;20052;-51
2021/01/26 04:03:51;;;;;;;3.58;2.65;;;-2.90;99.90;;;;;;5075881;28;20602;-49
2021/01/26 04:06:25;;;;;;;6.97;3.22;;;-2.90;99.90;;;;;;5083704;28;20476;-49
2021/01/26 04:09:06;;;;;;;5.57;2.38;;;-3.00;99.90;;;;;;5082458;28;20048;-49
2021/01/26 04:12:00;;;;;;;2.33;1.88;;;-2.90;99.90;;;;;;5087230;28;20040;-49
2021/01/26 04:14:34;;;;;;;4.30;2.15;;;-2.80;99.90;;;;;;5081227;28;20506;-50
2021/01/26 04:17:05;;;;;;;2.80;1.70;;;-2.80;99.90;;;;;;5087211;28;20055;-49
2021/01/26 04:19:37;;;;;;;5.60;2.45;;;-2.90;99.90;;;;;;5087553;28;20089;-49
2021/01/26 04:22:07;;;;;;;4.35;2.65;;;-3.00;99.90;;;;;;5068638;28;20049;-49
2021/01/26 04:24:35;;;;;;;8.73;4.30;;;-3.00;99.90;;;;;;5077879;28;20055;-48
2021/01/26 04:27:08;;;;;;;20.80;7.07;;;-3.10;99.90;;;;;;5079546;28;20404;-49
2021/01/26 04:29:34;;;;;;;51.50;7.80;;;-3.20;99.90;;;;;;5091081;28;20040;-49
2021/01/26 04:32:01;;;;;;;30.88;7.28;;;-3.20;99.90;;;;;;5084926;28;20067;-50
2021/01/26 04:34:28;;;;;;;36.13;6.10;;;-3.30;99.90;;;;;;5072325;28;20045;-48
2021/01/26 04:36:55;;;;;;;70.60;6.55;;;-3.50;99.90;;;;;;5087412;28;20052;-50
2021/01/26 04:39:21;;;;;;;13.70;5.85;;;-3.50;99.90;;;;;;5077902;28;20048;-49
2021/01/26 04:41:56;;;;;;;10.20;5.13;;;-3.50;99.90;;;;;;5085416;28;20487;-50
2021/01/26 04:44:48;;;;;;;9.68;5.35;;;-3.60;99.90;;;;;;5082656;28;20090;-49
2021/01/26 04:47:30;;;;;;;9.48;4.68;;;-3.60;99.90;;;;;;5074838;28;20040;-49
2021/01/26 04:50:19;;;;;;;10.77;6.15;;;-3.60;99.90;;;;;;5086124;28;20125;-50
2021/01/26 04:52:48;;;;;;;5.45;4.25;;;-3.50;99.90;;;;;;5078662;28;20056;-49
2021/01/26 04:55:33;;;;;;;9.73;4.93;;;-3.50;99.90;;;;;;5074519;28;20044;-49
2021/01/26 04:58:05;;;;;;;7.30;3.88;;;-3.50;99.90;;;;;;5084968;28;20040;-49
2021/01/26 05:00:40;;;;;;;;;;;-3.50;99.90;;;;;;5084696;28;20397;-49
2021/01/26 05:03:42;;;;;;;7.10;2.65;;;-3.40;99.90;;;;;;5085979;28;19928;-50
2021/01/26 05:06:13;;;;;;;8.52;2.10;;;-3.40;99.90;;;;;;5069853;28;20052;-49
2021/01/26 05:08:44;;;;;;;5.22;1.98;;;-3.30;99.90;;;;;;5083104;28;20080;-50
2021/01/26 05:11:15;;;;;;;5.63;3.10;;;-3.30;99.90;;;;;;5090536;28;20059;-49
2021/01/26 05:13:49;;;;;;;7.20;3.38;;;-3.30;99.90;;;;;;5086775;28;20044;-49
2021/01/26 05:16:22;;;;;;;3.58;2.20;;;-3.30;99.90;;;;;;5083288;28;20060;-49
2021/01/26 05:18:54;;;;;;;4.72;2.22;;;-3.40;99.90;;;;;;5084167;28;20430;-50
2021/01/26 05:21:33;;;;;;;3.00;1.83;;;-3.50;99.90;;;;;;5096266;28;20048;-49
2021/01/26 05:24:07;;;;;;;7.07;2.63;;;-3.60;99.90;;;;;;5083085;28;20055;-49
2021/01/26 05:26:33;;;;;;;7.65;2.88;;;-3.50;99.90;;;;;;5090091;28;20052;-49
2021/01/26 05:29:00;;;;;;;3.97;2.28;;;-3.50;99.90;;;;;;5082165;28;20059;-49
2021/01/26 05:31:28;;;;;;;3.67;2.55;;;-3.60;99.90;;;;;;5079813;28;20043;-49
2021/01/26 05:34:11;;;;;;;5.22;2.67;;;-3.60;99.90;;;;;;5077343;28;20449;-49
2021/01/26 05:36:41;;;;;;;8.10;3.80;;;-3.70;99.90;;;;;;5088598;28;20052;-49
2021/01/26 05:39:22;;;;;;;7.55;3.53;;;-3.70;99.90;;;;;;5089009;28;20044;-49
2021/01/26 05:41:49;;;;;;;3.92;2.05;;;-3.70;99.90;;;;;;5081696;28;20049;-49
2021/01/26 05:44:17;;;;;;;4.25;2.10;;;-3.80;99.90;;;;;;5077960;28;20411;-49
2021/01/26 05:46:46;;;;;;;10.80;4.88;;;-3.70;99.90;;;;;;5075995;28;20056;-49
2021/01/26 05:49:38;;;;;;;5.97;2.83;;;-3.80;99.90;;;;;;5087286;28;20039;-50
2021/01/26 05:52:08;;;;;;;3.95;3.08;;;-3.80;99.90;;;;;;5082480;28;20056;-49
2021/01/26 05:54:37;;;;;;;10.00;5.03;;;-3.80;99.90;;;;;;5085766;28;20095;-49
2021/01/26 05:57:04;;;;;;;6.25;3.70;;;-3.70;99.90;;;;;;5085491;28;20056;-48
2021/01/26 05:59:37;;;;;;;7.53;4.03;;;-3.80;99.90;;;;;;5091488;28;20123;-49
2021/01/26 06:02:20;;;;;;;5.38;3.72;;;-3.70;99.90;;;;;;5085301;28;20047;-49
2021/01/26 06:04:48;;;;;;;5.40;3.70;;;-3.70;99.90;;;;;;5085054;28;20048;-49
2021/01/26 06:07:21;;;;;;;4.68;2.90;;;-3.80;99.90;;;;;;5087394;28;20048;-49
2021/01/26 06:09:49;;;;;;;6.60;3.22;;;-3.80;99.90;;;;;;5084483;28;20489;-49
2021/01/26 06:12:22;;;;;;;5.80;3.13;;;-3.70;99.90;;;;;;5092151;28;20048;-49
2021/01/26 06:14:55;;;;;;;3.38;2.05;;;-3.70;99.90;;;;;;5087086;28;20043;-51
2021/01/26 06:17:26;;;;;;;3.40;1.17;;;-3.60;99.90;;;;;;5081060;28;20051;-49
2021/01/26 06:20:13;;;;;;;3.28;1.85;;;-3.50;99.90;;;;;;5091833;28;20082;-49
2021/01/26 06:22:40;;;;;;;2.00;1.08;;;-3.50;99.90;;;;;;5096761;28;20491;-49
2021/01/26 06:25:17;;;;;;;2.65;1.73;;;-3.50;99.90;;;;;;5089324;28;20051;-49
2021/01/26 06:27:50;;;;;;;3.80;2.10;;;-3.50;99.90;;;;;;5083596;28;20052;-49
2021/01/26 06:30:28;;;;;;;2.78;1.77;;;-3.40;99.90;;;;;;5084419;28;20052;-48
2021/01/26 06:33:04;;;;;;;5.45;1.73;;;-3.40;99.90;;;;;;5087140;28;20048;-48
2021/01/26 06:35:45;;;;;;;4.35;1.40;;;-3.40;99.90;;;;;;5087090;28;20476;-48
2021/01/26 06:38:49;;;;;;;3.88;1.55;;;-3.40;99.90;;;;;;5089789;28;20044;-48
2021/01/26 06:41:42;;;;;;;3.92;1.67;;;-3.60;99.90;;;;;;5086524;28;20048;-48
2021/01/26 06:44:20;;;;;;;5.75;1.85;;;-3.60;99.90;;;;;;5077920;28;20052;-48
2021/01/26 06:47:16;;;;;;;23.83;10.93;;;-3.60;99.90;;;;;;5091630;28;20480;-48
2021/01/26 06:50:03;;;;;;;18.27;9.52;;;-3.70;99.90;;;;;;5085768;28;20064;-48
2021/01/26 06:52:39;;;;;;;14.07;7.57;;;-3.90;99.90;;;;;;5082977;28;20044;-48
2021/01/26 06:55:13;;;;;;;14.07;8.55;;;-3.90;99.90;;;;;;5089943;28;20048;-48
2021/01/26 06:57:59;;;;;;;14.18;8.25;;;-3.90;99.90;;;;;;5085400;28;20044;-49
2021/01/26 07:00:48;;;;;;;14.27;7.75;;;-4.00;99.90;;;;;;5072272;28;20460;-49
2021/01/26 07:03:44;;;;;;;21.52;13.43;;;-4.00;99.90;;;;;;5085054;28;20060;-49
2021/01/26 07:06:11;;;;;;;16.73;8.93;;;-4.00;99.90;;;;;;5079448;28;20044;-49
2021/01/26 07:09:01;;;;;;;17.88;10.82;;;-4.00;99.90;;;;;;5091642;28;20052;-49
2021/01/26 07:12:05;;;;;;;32.97;18.83;;;-3.90;99.90;;;;;;5081028;28;20060;-49
2021/01/26 07:14:43;;;;;;;21.83;10.50;;;-4.00;99.90;;;;;;5078192;28;20051;-49
2021/01/26 07:17:12;;;;;;;29.33;16.05;;;-4.00;99.90;;;;;;5074734;28;20041;-49
2021/01/26 07:19:41;;;;;;;26.10;13.85;;;-4.00;99.90;;;;;;5087007;28;20113;-49
2021/01/26 07:22:32;;;;;;;86.82;42.75;;;-4.10;99.90;;;;;;5089723;28;20409;-49
2021/01/26 07:25:25;;;;;;;20.73;11.32;;;-4.00;99.90;;;;;;5089162;28;20044;-49
2021/01/26 07:28:20;;;;;;;5.20;3.53;;;-3.90;99.90;;;;;;5085608;28;20464;-49
2021/01/26 07:30:55;;;;;;;5.93;3.00;;;-3.80;99.90;;;;;;5078689;28;20044;-49
2021/01/26 07:33:38;;;;;;;9.52;7.13;;;-3.70;99.90;;;;;;5081865;28;20047;-49
2021/01/26 07:36:15;;;;;;;6.18;2.85;;;-3.60;99.90;;;;;;5077924;28;20056;-49
2021/01/26 07:39:01;;;;;;;2.95;1.67;;;-3.50;99.90;;;;;;5091226;28;20390;-53
2021/01/26 07:41:41;;;;;;;4.95;2.42;;;-3.40;99.90;;;;;;5084854;28;20048;-49
2021/01/26 07:44:17;;;;;;;31.90;18.05;;;-3.30;99.90;;;;;;5088569;28;20048;-50
2021/01/26 07:46:53;;;;;;;35.42;19.33;;;-3.20;99.90;;;;;;5089036;28;20055;-49
2021/01/26 07:49:31;;;;;;;85.35;34.83;;;-3.20;99.90;;;;;;5084878;28;20131;-50
2021/01/26 07:52:01;;;;;;;17.50;9.88;;;-3.20;99.90;;;;;;5089803;28;20505;-49
2021/01/26 07:54:42;;;;;;;10.25;7.32;;;-3.20;99.90;;;;;;5087563;28;20423;-49
2021/01/26 07:57:09;;;;;;;11.43;7.88;;;-3.20;99.90;;;;;;5077725;28;20507;-49
2021/01/26 07:59:40;;;;;;;28.90;15.95;;;-3.40;99.90;;;;;;5089143;28;20044;-51
2021/01/26 08:02:17;;;;;;;20.85;12.93;;;-3.40;99.90;;;;;;5083616;28;20044;-49
2021/01/26 08:04:45;;;;;;;14.07;8.10;;;-3.40;99.90;;;;;;5089642;28;20052;-49
2021/01/26 08:07:31;;;;;;;19.85;12.15;;;-3.30;99.90;;;;;;5084441;28;20054;-50
2021/01/26 08:10:04;;;;;;;12.95;7.45;;;-3.30;99.90;;;;;;5076631;28;20063;-49
2021/01/26 08:12:30;;;;;;;14.88;8.30;;;-3.30;99.90;;;;;;5087271;28;20044;-49
2021/01/26 08:15:30;;;;;;;11.48;7.25;;;-3.30;99.90;;;;;;5086645;28;20052;-49
2021/01/26 08:18:16;;;;;;;13.13;7.13;;;-3.30;99.90;;;;;;5072268;28;20040;-50
2021/01/26 08:20:43;;;;;;;15.38;8.65;;;-3.20;99.90;;;;;;5085002;28;20052;-49
2021/01/26 08:23:28;;;;;;;14.93;7.68;;;-3.10;99.90;;;;;;5076642;28;21538;-49
2021/01/26 08:25:56;;;;;;;5.57;1.60;;;-3.00;99.90;;;;;;5089990;28;20060;-49
2021/01/26 08:28:38;;;;;;;6.22;3.60;;;-2.90;99.90;;;;;;5082485;28;20048;-50
2021/01/26 08:31:28;;;;;;;5.93;2.97;;;-2.70;99.90;;;;;;5085756;28;20044;-49
2021/01/26 08:34:15;;;;;;;11.10;4.57;;;-2.50;99.90;;;;;;5089043;28;20559;-50
2021/01/26 08:36:42;;;;;;;7.43;3.92;;;-2.30;99.90;;;;;;5082632;28;20036;-50
2021/01/26 08:39:15;;;;;;;11.60;5.95;;;-2.20;99.90;;;;;;5056862;28;20052;-49
2021/01/26 08:41:51;;;;;;;8.15;4.05;;;-2.20;99.90;;;;;;5089575;28;20048;-49
2021/01/26 08:44:20;;;;;;;5.13;4.03;;;-2.10;99.90;;;;;;5086466;28;20070;-49
2021/01/26 08:46:49;;;;;;;2.90;1.80;;;-2.00;99.90;;;;;;5087036;28;20048;-49
2021/01/26 08:49:30;;;;;;;1.52;1.00;;;-1.90;99.90;;;;;;5081723;28;20096;-50
2021/01/26 08:52:25;;;;;;;12.15;4.55;;;-1.80;99.90;;;;;;5093218;28;20048;-49
2021/01/26 08:54:53;;;;;;;59.80;29.85;;;-1.80;99.90;;;;;;5091302;28;20051;-49
2021/01/26 08:57:43;;;;;;;52.55;27.52;;;-1.70;99.90;;;;;;5083791;28;20048;-50
2021/01/26 09:00:24;;;;;;;50.92;27.65;;;-1.80;99.90;;;;;;5080250;28;20052;-49
2021/01/26 09:02:52;;;;;;;74.95;38.22;;;-1.70;99.90;;;;;;5086530;28;20054;-51
2021/01/26 09:05:41;;;;;;;131.30;72.88;;;-1.60;99.90;;;;;;5090879;28;20068;-49
2021/01/26 09:08:07;;;;;;;91.30;52.08;;;-1.60;99.90;;;;;;5090710;28;20063;-50
2021/01/26 09:10:52;;;;;;;125.43;64.75;;;-1.60;99.90;;;;;;5082285;28;20051;-50
2021/01/26 09:13:24;;;;;;;96.88;53.80;;;-1.50;99.90;;;;;;5093494;28;20059;-49
2021/01/26 09:15:54;;;;;;;138.90;71.20;;;-1.40;99.90;;;;;;5088334;28;20044;-51
2021/01/26 09:18:24;;;;;;;184.23;93.95;;;-1.40;99.90;;;;;;5090823;28;20045;-52
2021/01/26 09:20:57;;;;;;;62.80;35.58;;;-1.30;99.90;;;;;;5091373;28;20052;-50
2021/01/26 09:23:25;;;;;;;58.20;29.92;;;-1.20;99.90;;;;;;5078737;28;20052;-50
2021/01/26 09:25:52;;;;;;;40.28;22.50;;;-1.20;99.90;;;;;;5080423;28;20480;-50
2021/01/26 09:28:24;;;;;;;38.33;23.00;;;-1.00;99.90;;;;;;5084444;28;20055;-50
2021/01/26 09:31:01;;;;;;;26.80;16.45;;;-0.90;99.90;;;;;;5074071;28;20457;-50
2021/01/26 09:33:29;;;;;;;17.08;10.60;;;-0.90;99.90;;;;;;5091213;28;20040;-51
2021/01/26 09:36:02;;;;;;;11.75;7.72;;;-1.00;99.90;;;;;;5080844;28;20715;-50
2021/01/26 09:38:35;;;;;;;35.20;21.60;;;-0.80;99.90;;;;;;5080933;28;20054;-50
2021/01/26 09:41:05;;;;;;;68.47;32.70;;;-0.70;99.90;;;;;;5084092;28;20055;-51
2021/01/26 09:43:37;;;;;;;53.05;28.95;;;-0.60;99.90;;;;;;5093062;28;20507;-50
2021/01/26 09:46:08;;;;;;;58.73;36.93;;;-0.50;99.90;;;;;;5087535;28;20134;-51
2021/01/26 09:48:53;;;;;;;29.30;20.30;;;-0.40;99.90;;;;;;5077656;28;20344;-50
2021/01/26 09:51:27;;;;;;;14.85;9.60;;;-0.40;99.90;;;;;;5090038;28;20051;-51
2021/01/26 09:54:03;;;;;;;26.00;19.20;;;-0.30;99.90;;;;;;5087323;28;20056;-53
2021/01/26 09:56:31;;;;;;;10.50;6.57;;;-0.10;99.90;;;;;;5091760;28;20438;-51
2021/01/26 09:59:00;;;;;;;21.25;14.82;;;0.00;99.90;;;;;;5085637;28;20044;-52
2021/01/26 10:01:29;;;;;;;19.48;9.70;;;0.10;99.90;;;;;;5078103;28;20051;-51
2021/01/26 10:04:00;;;;;;;9.55;2.70;;;0.20;99.90;;;;;;5089348;28;20051;-51
2021/01/26 10:06:28;;;;;;;10.70;9.60;;;0.30;99.90;;;;;;5086037;28;20598;-51
2021/01/26 10:08:55;;;;;;;3.15;2.22;;;0.40;99.90;;;;;;5093365;28;20056;-51
2021/01/26 10:11:29;;;;;;;1.73;1.10;;;0.40;99.90;;;;;;5082287;28;20472;-51
2021/01/26 10:14:15;;;;;;;5.50;5.10;;;0.60;99.90;;;;;;5091622;28;20062;-51
2021/01/26 10:16:46;;;;;;;2.20;0.80;;;0.60;99.90;;;;;;5088486;28;20052;-52
2021/01/26 10:19:22;;;;;;;1.85;0.50;;;0.70;99.90;;;;;;5086387;28;20541;-51
2021/01/26 10:21:49;;;;;;;2.83;1.13;;;0.80;99.90;;;;;;5091414;28;20056;-51
2021/01/26 10:24:22;;;;;;;1.13;0.80;;;1.00;99.90;;;;;;5082852;28;20055;-51
2021/01/26 10:26:49;;;;;;;0.90;0.73;;;1.10;99.90;;;;;;5073960;28;20072;-51
2021/01/26 10:29:22;;;;;;;0.70;0.55;;;1.30;99.90;;;;;;5087772;28;20816;-51
2021/01/26 10:32:02;;;;;;;3.53;0.90;;;1.60;99.90;;;;;;5087640;28;20049;-51
2021/01/26 10:34:31;;;;;;;1.23;0.90;;;1.50;99.90;;;;;;5085967;28;20072;-51
2021/01/26 10:37:21;;;;;;;4.22;1.98;;;1.80;99.90;;;;;;5077762;28;20447;-50
2021/01/26 10:40:04;;;;;;;4.07;1.08;;;1.80;99.90;;;;;;5067329;28;20403;-50
2021/01/26 10:42:31;;;;;;;1.40;1.10;;;2.20;99.90;;;;;;5091749;28;20058;-50
2021/01/26 10:44:58;;;;;;;1.20;1.00;;;2.20;99.90;;;;;;5097925;28;20461;-51
2021/01/26 10:47:33;;;;;;;6.60;3.72;;;2.60;99.90;;;;;;5088639;28;20788;-52
2021/01/26 10:50:26;;;;;;;3.55;1.00;;;2.50;99.90;;;;;;5081424;28;20460;-50
2021/01/26 10:52:53;;;;;;;4.32;1.35;;;2.50;99.90;;;;;;5072559;28;20407;-51
2021/01/26 10:55:22;;;;;;;2.40;1.10;;;2.90;99.90;;;;;;5085484;28;20056;-51
2021/01/26 10:57:50;;;;;;;7.75;4.30;;;2.90;99.90;;;;;;5087992;28;20438;-50
2021/01/26 11:00:22;;;;;;;6.43;2.97;;;2.90;99.90;;;;;;5079872;28;20094;-50
2021/01/26 11:02:50;;;;;;;6.25;3.92;;;3.20;99.90;;;;;;5078349;28;20054;-51
2021/01/26 11:05:17;;;;;;;7.45;3.30;;;3.60;99.90;;;;;;5086249;28;20176;-51
2021/01/26 11:07:44;;;;;;;6.80;4.05;;;3.60;99.90;;;;;;5084809;28;20078;-50
2021/01/26 11:10:11;;;;;;;2.88;2.38;;;4.10;99.90;;;;;;5087139;28;20059;-50
2021/01/26 11:12:38;;;;;;;4.90;2.92;;;3.90;99.90;;;;;;5083678;28;20044;-50
2021/01/26 11:15:15;;;;;;;12.60;6.68;;;3.90;99.90;;;;;;5086096;28;20040;-51
2021/01/26 11:17:43;;;;;;;19.60;11.02;;;4.30;99.90;;;;;;5087227;28;20050;-50
2021/01/26 11:20:10;;;;;;;26.13;16.42;;;4.30;99.90;;;;;;5077904;28;20734;-50
2021/01/26 11:22:38;;;;;;;22.98;16.83;;;4.70;99.90;;;;;;5102488;28;20547;-50
2021/01/26 11:25:07;;;;;;;19.90;12.48;;;5.00;99.90;;;;;;5086078;28;20059;-50
2021/01/26 11:27:34;;;;;;;16.20;10.00;;;5.10;99.90;;;;;;5072616;28;20044;-50
2021/01/26 11:30:06;;;;;;;19.70;10.32;;;5.30;99.90;;;;;;5082547;28;20490;-50
2021/01/26 11:32:33;;;;;;;15.82;10.80;;;5.60;99.90;;;;;;5081713;28;20159;-50
2021/01/26 11:35:01;;;;;;;17.45;9.95;;;5.30;99.90;;;;;;5084521;28;20044;-51
2021/01/26 11:37:27;;;;;;;19.70;10.57;;;5.30;99.90;;;;;;5074821;28;20388;-50
2021/01/26 11:39:54;;;;;;;13.73;8.65;;;5.60;99.90;;;;;;5082879;28;20050;-50
2021/01/26 11:42:20;;;;;;;12.20;8.48;;;5.60;99.90;;;;;;5080603;28;20404;-48
2021/01/26 11:44:47;;;;;;;5.20;4.38;;;5.90;99.90;;;;;;5090894;28;20502;-49
2021/01/26 11:47:13;;;;;;;7.63;4.50;;;6.10;99.90;;;;;;5085405;28;20052;-51
2021/01/26 11:49:40;;;;;;;12.23;8.88;;;6.10;99.90;;;;;;5080071;28;20442;-48
2021/01/26 11:52:06;;;;;;;10.85;8.63;;;6.10;99.90;;;;;;5069400;28;20048;-49
2021/01/26 11:54:33;;;;;;;10.85;6.43;;;6.10;99.90;;;;;;5085644;28;20048;-50
2021/01/26 11:57:00;;;;;;;6.90;2.80;;;6.10;99.90;;;;;;5088946;28;20044;-49
2021/01/26 11:59:26;;;;;;;5.47;3.72;;;6.30;99.90;;;;;;5083063;28;20392;-51
2021/01/26 12:01:53;;;;;;;1.42;1.23;;;6.80;99.90;;;;;;5082676;28;20044;-50
2021/01/26 12:04:20;;;;;;;2.40;1.85;;;7.10;99.90;;;;;;5085591;28;20076;-52
2021/01/26 12:06:47;;;;;;;2.97;1.77;;;7.00;99.90;;;;;;5086481;28;20099;-49
2021/01/26 12:09:14;;;;;;;4.63;1.70;;;7.00;99.90;;;;;;5089240;28;20058;-52
2021/01/26 12:11:41;;;;;;;3.03;1.13;;;7.20;99.90;;;;;;5084084;28;20047;-52
2021/01/26 12:14:08;;;;;;;1.23;0.90;;;7.40;98.90;;;;;;5083838;28;20063;-52
2021/01/26 12:16:35;;;;;;;1.55;0.70;;;7.40;96.10;;;;;;5078763;28;20040;-52
2021/01/26 12:19:02;;;;;;;0.20;0.20;;;7.10;99.90;;;;;;5090644;28;20585;-51
2021/01/26 12:21:28;;;;;;;0.20;0.20;;;7.10;96.60;;;;;;5082066;28;20047;-52
2021/01/26 12:23:54;;;;;;;0.25;0.20;;;7.10;94.50;;;;;;5075009;28;20051;-52
2021/01/26 12:26:21;;;;;;;0.80;0.57;;;7.30;92.90;;;;;;5086445;28;20055;-52
2021/01/26 12:28:47;;;;;;;1.02;0.80;;;7.80;99.90;;;;;;5087190;28;20055;-52
2021/01/26 12:31:14;;;;;;;0.52;0.40;;;7.50;97.40;;;;;;5086725;28;20063;-49
2021/01/26 12:33:41;;;;;;;0.50;0.40;;;7.50;97.60;;;;;;5083130;28;20036;-49
2021/01/26 12:36:07;;;;;;;0.50;0.40;;;7.60;94.00;;;;;;5088186;28;20052;-49
2021/01/26 12:38:34;;;;;;;0.50;0.30;;;8.00;99.10;;;;;;5082515;28;20488;-52
2021/01/26 12:41:01;;;;;;;1.08;0.20;;;8.30;99.10;;;;;;5079596;28;20044;-53
2021/01/26 12:43:27;;;;;;;1.15;0.10;;;8.10;79.80;;;;;;5082911;28;20052;-49
2021/01/26 12:45:54;;;;;;;0.20;0.10;;;8.30;90.90;;;;;;5072569;28;20052;-50
2021/01/26 12:48:21;;;;;;;0.20;0.10;;;8.60;85.60;;;;;;5089515;28;20052;-48
2021/01/26 12:50:48;;;;;;;0.20;0.13;;;8.70;78.20;;;;;;5080157;28;20102;-50
2021/01/26 12:53:14;;;;;;;0.22;0.20;;;8.90;89.30;;;;;;5087090;28;20056;-49
2021/01/26 12:55:41;;;;;;;0.20;0.10;;;9.10;87.70;;;;;;5082753;28;20047;-50
2021/01/26 12:58:10;;;;;;;0.08;0.00;;;9.10;70.80;;;;;;5086988;28;20060;-52
2021/01/26 13:00:37;;;;;;;0.40;0.10;;;9.10;74.90;;;;;;5087774;28;20504;-49
2021/01/26 13:03:04;;;;;;;0.30;0.20;;;9.30;80.20;;;;;;5081760;28;20062;-48
2021/01/26 13:05:31;;;;;;;0.20;0.10;;;9.10;72.80;;;;;;5080281;28;20484;-49
2021/01/26 13:07:58;;;;;;;0.30;0.20;;;8.80;62.50;;;;;;5083235;28;20051;-48
2021/01/26 13:10:25;;;;;;;2.45;0.60;;;8.90;72.20;;;;;;5090104;28;22047;-52
2021/01/26 13:12:52;;;;;;;27.27;11.20;;;9.40;81.00;;;;;;5081475;28;20044;-49
2021/01/26 13:15:22;;;;;;;2.85;1.05;;;9.30;77.50;;;;;;5071048;28;20487;-49